Time;durP1;ratioP1;P1;durP2;ratioP2;P2;SDS_P1;SDS_P2;PMS_P1;PMS_P2;Temp;Humidity;BMP_temperature;BMP_pressure;BME280_temperature;BME280_humidity;BME280_pressure;Samples;Min_cycle;Max_cycle;Signal;HPM_P1;HPM_P2
2021/01/14 00:01:08;;;;;;;2.05;1.30;;;;;;;1.44;86.85;95090.41;4972213;28;20509;-49
2021/01/14 00:03:34;;;;;;;1.27;1.05;;;;;;;1.54;86.69;95092.09;4972149;28;20522;-47
2021/01/14 00:06:08;;;;;;;;;;;;;;;1.61;86.09;95077.28;4971420;28;20058;-51
2021/01/14 00:08:34;;;;;;;2.60;1.23;;;;;;;1.55;86.32;95083.78;4975837;28;19968;-48
2021/01/14 00:11:01;;;;;;;1.52;1.20;;;;;;;1.47;86.51;95100.50;4975917;28;20082;-49
2021/01/14 00:13:27;;;;;;;1.83;1.30;;;;;;;1.56;86.54;95096.06;4976155;28;20133;-50
2021/01/14 00:15:54;;;;;;;1.88;1.42;;;;;;;1.47;86.81;95094.38;4974604;28;20101;-47
2021/01/14 00:18:20;;;;;;;3.42;1.30;;;;;;;1.43;86.69;95094.16;4976054;28;20066;-48
2021/01/14 00:20:47;;;;;;;1.60;1.30;;;;;;;1.53;86.39;95101.19;4974983;28;20058;-47
2021/01/14 00:23:13;;;;;;;1.33;1.20;;;;;;;1.53;86.60;95096.66;4975938;28;20130;-48
2021/01/14 00:25:39;;;;;;;3.28;1.48;;;;;;;1.51;86.67;95108.69;4974850;28;20062;-50
2021/01/14 00:28:06;;;;;;;1.80;1.40;;;;;;;1.50;86.63;95112.44;4975466;28;20103;-49
2021/01/14 00:30:32;;;;;;;1.83;1.25;;;;;;;1.51;86.17;95103.34;4974935;28;20054;-50
2021/01/14 00:33:00;;;;;;;1.80;1.48;;;;;;;1.51;86.43;95120.13;4974435;28;20047;-48
2021/01/14 00:35:27;;;;;;;1.83;1.30;;;;;;;1.50;86.31;95118.56;4974815;28;20055;-52
2021/01/14 00:37:55;;;;;;;1.98;1.48;;;;;;;1.57;86.15;95118.16;4974881;28;20109;-49
2021/01/14 00:40:25;;;;;;;2.15;1.52;;;;;;;1.51;86.51;95114.00;4975475;28;20451;-47
2021/01/14 00:42:53;;;;;;;1.98;1.42;;;;;;;1.50;86.47;95112.44;4975655;28;20055;-49
2021/01/14 00:45:20;;;;;;;1.30;1.20;;;;;;;1.50;86.38;95112.44;4975001;28;20118;-48
2021/01/14 00:47:47;;;;;;;2.53;1.70;;;;;;;1.46;86.62;95124.75;4974377;28;20066;-48
2021/01/14 00:50:13;;;;;;;2.15;1.65;;;;;;;1.40;87.12;95113.41;4971494;28;20133;-51
2021/01/14 00:52:40;;;;;;;2.03;1.65;;;;;;;1.41;87.06;95130.97;4974804;28;20125;-52
2021/01/14 00:55:08;;;;;;;2.85;1.80;;;;;;;1.36;87.14;95117.72;4975121;28;20532;-51
2021/01/14 00:57:36;;;;;;;2.80;1.63;;;;;;;1.42;86.65;95129.88;4973550;28;20127;-50
2021/01/14 01:00:25;;;;;;;2.60;2.15;;;;;;;1.26;87.08;95121.34;4975023;28;20054;-48
2021/01/14 01:02:52;;;;;;;3.05;1.83;;;;;;;1.29;86.92;95125.31;4975086;28;20120;-48
2021/01/14 01:05:22;;;;;;;2.92;1.92;;;;;;;1.28;86.98;95150.41;4974705;28;20046;-47
2021/01/14 01:07:57;;;;;;;2.72;1.75;;;;;;;1.21;87.21;95140.13;4974199;28;20138;-49
2021/01/14 01:10:24;;;;;;;3.55;2.05;;;;;;;1.20;87.19;95143.06;4975022;28;20133;-49
2021/01/14 01:12:53;;;;;;;2.63;1.58;;;;;;;1.28;87.00;95142.41;4974809;28;20129;-50
2021/01/14 01:15:19;;;;;;;3.08;2.00;;;;;;;1.21;86.88;95131.34;4973909;28;20054;-50
2021/01/14 01:17:46;;;;;;;2.95;2.10;;;;;;;1.20;86.93;95132.41;4973836;28;20061;-49
2021/01/14 01:20:12;;;;;;;4.25;1.98;;;;;;;1.17;86.67;95142.56;4973670;28;20051;-52
2021/01/14 01:22:39;;;;;;;3.05;1.92;;;;;;;1.20;86.44;95159.03;4974706;28;20531;-53
2021/01/14 01:25:06;;;;;;;2.70;2.25;;;;;;;1.23;86.02;95169.13;4974766;28;20065;-49
2021/01/14 01:27:32;;;;;;;4.43;2.33;;;;;;;1.26;86.34;95177.31;4972681;28;20405;-51
2021/01/14 01:29:59;;;;;;;3.03;2.03;;;;;;;1.35;85.57;95166.78;4989388;28;20134;-50
2021/01/14 01:32:25;;;;;;;3.13;2.17;;;;;;;1.34;85.41;95171.34;4974584;28;20058;-47
2021/01/14 01:34:51;;;;;;;3.60;2.22;;;;;;;1.24;85.57;95181.38;4974636;28;20055;-48
2021/01/14 01:37:18;;;;;;;3.03;2.10;;;;;;;1.12;85.45;95182.59;4972617;28;20043;-50
2021/01/14 01:39:45;;;;;;;3.13;1.90;;;;;;;1.26;85.04;95184.53;4974335;28;20057;-51
2021/01/14 01:42:12;;;;;;;3.67;2.58;;;;;;;1.38;84.65;95174.22;4974217;28;20133;-52
2021/01/14 01:44:39;;;;;;;3.67;2.10;;;;;;;1.27;84.62;95162.13;4974197;28;20082;-48
2021/01/14 01:47:06;;;;;;;3.45;2.25;;;;;;;1.27;84.81;95178.94;4972378;28;20047;-47
2021/01/14 01:49:37;;;;;;;3.35;2.00;;;;;;;1.38;84.48;95168.88;4973487;28;20058;-47
2021/01/14 01:52:06;;;;;;;3.65;2.65;;;;;;;1.27;84.32;95172.78;4974220;28;20065;-47
2021/01/14 01:54:35;;;;;;;4.65;2.30;;;;;;;1.24;84.20;95171.50;4973995;28;20088;-48
2021/01/14 01:57:04;;;;;;;3.67;2.65;;;;;;;1.26;84.22;95176.53;4972168;28;20138;-47
2021/01/14 01:59:31;;;;;;;4.25;2.25;;;;;;;1.34;83.50;95174.00;4972970;28;20063;-47
2021/01/14 02:02:17;;;;;;;3.50;2.50;;;;;;;1.32;83.38;95165.50;4974076;28;20160;-49
2021/01/14 02:04:44;;;;;;;4.10;2.78;;;;;;;1.27;83.60;95168.25;4974003;28;20063;-50
2021/01/14 02:07:14;;;;;;;4.60;3.03;;;;;;;1.34;83.14;95163.34;4971960;28;20047;-51
2021/01/14 02:09:46;;;;;;;5.43;2.70;;;;;;;1.30;82.28;95164.19;4973875;28;20566;-49
2021/01/14 02:12:13;;;;;;;4.07;2.67;;;;;;;1.28;81.49;95159.19;4973775;28;20142;-50
2021/01/14 02:14:41;;;;;;;4.05;2.72;;;;;;;1.23;81.44;95156.59;4973578;28;20055;-51
2021/01/14 02:17:07;;;;;;;3.38;2.38;;;;;;;1.28;81.11;95169.06;4971918;28;20053;-47
2021/01/14 02:19:42;;;;;;;3.40;2.30;;;;;;;1.26;80.98;95152.56;4972668;28;20091;-49
2021/01/14 02:22:13;;;;;;;4.20;2.47;;;;;;;1.28;80.82;95187.69;4973578;28;20130;-46
2021/01/14 02:24:46;;;;;;;3.37;2.30;;;;;;;1.26;80.43;95187.19;4973872;28;20062;-48
2021/01/14 02:27:12;;;;;;;3.25;2.13;;;;;;;1.18;80.15;95180.66;4972691;28;20134;-48
2021/01/14 02:29:40;;;;;;;4.63;2.30;;;;;;;1.17;79.65;95166.56;4971578;28;20062;-50
2021/01/14 02:32:17;;;;;;;3.42;2.35;;;;;;;1.20;79.38;95157.16;4973576;28;20153;-48
2021/01/14 02:34:44;;;;;;;3.03;2.05;;;;;;;1.28;79.05;95158.38;4973328;28;20047;-47
2021/01/14 02:37:11;;;;;;;2.88;1.90;;;;;;;1.50;78.39;95185.22;4972473;28;20054;-48
2021/01/14 02:39:38;;;;;;;3.35;2.30;;;;;;;1.29;78.81;95181.28;4972456;28;20105;-47
2021/01/14 02:42:04;;;;;;;3.80;2.40;;;;;;;1.25;78.98;95204.28;4973122;28;20082;-49
2021/01/14 02:44:30;;;;;;;4.32;2.40;;;;;;;1.30;78.83;95201.50;4973274;28;20054;-50
2021/01/14 02:46:59;;;;;;;3.60;2.53;;;;;;;1.26;79.39;95195.19;4971238;28;20471;-47
2021/01/14 02:49:33;;;;;;;3.92;2.60;;;;;;;1.30;79.52;95209.50;5003141;23;20066;-50
2021/01/14 02:52:04;;;;;;;4.10;2.60;;;;;;;1.45;79.37;95206.59;4974924;28;20503;-52
2021/01/14 02:54:30;;;;;;;3.10;2.10;;;;;;;1.35;79.81;95220.09;4972587;28;20053;-51
2021/01/14 02:56:57;;;;;;;3.05;2.10;;;;;;;1.38;79.78;95203.53;4973872;28;20471;-55
2021/01/14 02:59:23;;;;;;;3.38;2.20;;;;;;;1.24;80.72;95190.16;5006149;28;20050;-50
2021/01/14 03:01:50;;;;;;;3.20;2.33;;;;;;;1.28;80.97;95201.03;5014017;28;20137;-57
2021/01/14 03:04:16;;;;;;;4.53;3.13;;;;;;;1.24;81.47;95195.50;5021848;28;20053;-56
2021/01/14 03:06:43;;;;;;;4.43;2.65;;;;;;;1.29;81.13;95202.59;5001432;28;20120;-55
2021/01/14 03:09:09;;;;;;;3.97;2.88;;;;;;;1.23;81.56;95201.88;5001690;28;20085;-55
2021/01/14 03:11:36;;;;;;;3.80;2.95;;;;;;;1.24;81.15;95195.50;5000303;28;20077;-52
2021/01/14 03:14:03;;;;;;;4.38;2.63;;;;;;;1.36;80.82;95203.00;4983638;28;20110;-55
2021/01/14 03:16:36;;;;;;;4.35;3.17;;;;;;;1.21;81.28;95193.41;5019808;28;20076;-53
2021/01/14 03:19:03;;;;;;;6.03;2.97;;;;;;;1.29;80.92;95192.72;5014503;28;20050;-56
2021/01/14 03:21:29;;;;;;;3.78;2.85;;;;;;;1.31;80.04;95187.13;5000183;28;20058;-56
2021/01/14 03:23:55;;;;;;;4.03;2.88;;;;;;;1.28;79.83;95214.34;5000920;28;20150;-55
2021/01/14 03:26:22;;;;;;;5.43;3.45;;;;;;;1.34;79.63;95202.53;4991147;28;20060;-55
2021/01/14 03:28:49;;;;;;;4.47;2.90;;;;;;;1.30;79.57;95197.00;5004831;28;20065;-55
2021/01/14 03:31:16;;;;;;;4.65;3.10;;;;;;;1.29;79.53;95203.38;4991657;28;20498;-56
2021/01/14 03:33:44;;;;;;;4.10;2.42;;;;;;;1.34;78.55;95229.19;4991425;28;20050;-52
2021/01/14 03:36:15;;;;;;;4.70;2.90;;;;;;;1.21;79.03;95211.28;4990247;28;20053;-54
2021/01/14 03:38:42;;;;;;;5.93;3.53;;;;;;;1.23;78.66;95212.53;4971796;28;20109;-56
2021/01/14 03:41:09;;;;;;;4.28;3.00;;;;;;;1.19;78.69;95211.53;4971546;28;20512;-53
2021/01/14 03:43:36;;;;;;;4.00;2.83;;;;;;;1.08;77.83;95208.25;4986619;28;20050;-57
2021/01/14 03:46:15;;;;;;;4.93;3.40;;;;;;;1.17;77.83;95216.38;4982263;28;20050;-58
2021/01/14 03:48:43;;;;;;;5.50;3.17;;;;;;;1.09;78.31;95193.84;4998982;28;20081;-56
2021/01/14 03:51:16;;;;;;;6.50;3.00;;;;;;;1.21;77.84;95206.72;4998288;28;20050;-56
2021/01/14 03:53:42;;;;;;;4.05;2.88;;;;;;;1.06;77.93;95217.59;4999882;28;20551;-52
2021/01/14 03:56:09;;;;;;;5.00;3.30;;;;;;;1.02;78.92;95240.59;5000334;28;20057;-53
2021/01/14 03:58:36;;;;;;;6.70;3.50;;;;;;;0.95;79.54;95224.97;5009557;28;20136;-53
2021/01/14 04:01:03;;;;;;;5.43;3.58;;;;;;;1.07;78.31;95230.66;5012125;28;20051;-56
2021/01/14 04:03:30;;;;;;;5.30;3.53;;;;;;;1.10;78.20;95235.38;4993104;28;20420;-56
2021/01/14 04:05:56;;;;;;;5.03;3.13;;;;;;;1.05;78.29;95230.13;4990304;28;20078;-57
2021/01/14 04:08:23;;;;;;;13.60;3.88;;;;;;;1.17;77.78;95238.50;4990312;28;20452;-54
2021/01/14 04:10:49;;;;;;;5.50;3.60;;;;;;;1.05;78.31;95246.13;5005724;28;20058;-52
2021/01/14 04:13:16;;;;;;;6.05;3.55;;;;;;;1.06;78.17;95246.91;4990946;28;20093;-55
2021/01/14 04:15:42;;;;;;;5.95;3.70;;;;;;;1.05;78.62;95240.00;5005717;28;20054;-53
2021/01/14 04:18:08;;;;;;;6.00;3.95;;;;;;;1.09;78.11;95249.00;4998572;28;20054;-52
2021/01/14 04:20:35;;;;;;;5.47;3.30;;;;;;;0.97;78.32;95236.09;4992160;28;20081;-50
2021/01/14 04:23:01;;;;;;;4.15;3.38;;;;;;;0.95;78.58;95248.94;4990613;28;20062;-53
2021/01/14 04:25:31;;;;;;;6.35;3.85;;;;;;;0.86;78.91;95248.00;4990972;28;20090;-54
2021/01/14 04:28:01;;;;;;;8.13;4.43;;;;;;;0.97;78.96;95264.63;4989904;28;20054;-51
2021/01/14 04:30:31;;;;;;;6.43;4.18;;;;;;;1.09;78.34;95264.97;4991443;28;20085;-55
2021/01/14 04:33:01;;;;;;;7.85;4.07;;;;;;;1.09;78.31;95276.44;4990765;28;20084;-55
2021/01/14 04:35:28;;;;;;;6.72;3.83;;;;;;;1.10;78.41;95279.88;4990537;28;20090;-54
2021/01/14 04:37:54;;;;;;;14.27;3.63;;;;;;;0.96;78.93;95282.47;4976055;28;20043;-54
2021/01/14 04:40:20;;;;;;;8.23;4.07;;;;;;;0.98;79.29;95276.88;4971001;28;20256;-53
2021/01/14 04:42:49;;;;;;;5.47;3.67;;;;;;;1.05;78.84;95272.75;4971110;28;20134;-55
2021/01/14 04:45:18;;;;;;;5.40;3.65;;;;;;;1.05;78.74;95267.44;4979008;28;20388;-52
2021/01/14 04:47:48;;;;;;;5.35;3.58;;;;;;;1.02;79.16;95272.53;4989723;28;20053;-53
2021/01/14 04:50:17;;;;;;;6.65;3.83;;;;;;;0.86;80.49;95285.28;4987351;28;20082;-50
2021/01/14 04:52:46;;;;;;;7.97;4.57;;;;;;;0.63;82.24;95282.34;4980111;28;20109;-52
2021/01/14 04:55:14;;;;;;;7.40;4.15;;;;;;;0.66;82.22;95281.78;4974706;28;20046;-52
2021/01/14 04:57:45;;;;;;;9.68;4.97;;;;;;;0.62;83.21;95295.97;4981994;28;20084;-51
2021/01/14 05:00:13;;;;;;;8.10;4.50;;;;;;;0.58;83.00;95278.94;4993791;28;20085;-51
2021/01/14 05:03:12;;;;;;;7.63;5.00;;;;;;;0.56;84.32;95313.84;4993854;28;20058;-54
2021/01/14 05:05:45;;;;;;;10.70;5.82;;;;;;;0.17;87.28;95296.16;5002145;28;20046;-54
2021/01/14 05:08:13;;;;;;;17.98;9.65;;;;;;;0.04;89.52;95302.16;5000272;28;20507;-55
2021/01/14 05:10:41;;;;;;;12.52;8.10;;;;;;;0.10;87.81;95302.88;5000257;28;20066;-51
2021/01/14 05:13:09;;;;;;;13.55;7.68;;;;;;;0.26;87.05;95306.19;4993855;28;20046;-54
2021/01/14 05:15:37;;;;;;;13.05;8.10;;;;;;;0.17;87.54;95296.16;4993296;28;20416;-53
2021/01/14 05:18:03;;;;;;;11.27;7.57;;;;;;;0.15;87.34;95308.16;4992922;28;20590;-55
2021/01/14 05:20:30;;;;;;;12.88;8.60;;;;;;;0.36;86.78;95303.44;4995855;28;20054;-56
2021/01/14 05:23:05;;;;;;;10.93;7.40;;;;;;;0.38;86.89;95306.59;5017916;28;20426;-52
2021/01/14 05:25:32;;;;;;;8.93;6.43;;;;;;;0.45;86.24;95313.16;4999030;28;20145;-57
2021/01/14 05:28:10;;;;;;;10.02;6.78;;;;;;;0.55;85.57;95303.47;5014410;28;20046;-52
2021/01/14 05:30:37;;;;;;;8.68;6.13;;;;;;;0.56;85.39;95305.88;5011635;28;20058;-51
2021/01/14 05:33:10;;;;;;;10.80;6.07;;;;;;;0.59;83.79;95313.28;5013020;28;20132;-52
2021/01/14 05:35:36;;;;;;;7.93;5.72;;;;;;;0.49;84.66;95320.56;5018308;28;20053;-54
2021/01/14 05:38:03;;;;;;;8.57;5.63;;;;;;;0.49;84.43;95313.41;5013712;28;20097;-54
2021/01/14 05:40:30;;;;;;;9.50;6.47;;;;;;;0.45;84.19;95307.03;4994866;28;20058;-53
2021/01/14 05:43:05;;;;;;;8.48;5.22;;;;;;;0.45;84.63;95312.38;4997441;28;20086;-57
2021/01/14 05:45:33;;;;;;;10.35;7.03;;;;;;;0.47;84.96;95321.66;4995092;28;20062;-50
2021/01/14 05:48:10;;;;;;;8.00;5.88;;;;;;;0.51;84.00;95326.41;4996699;28;20050;-54
2021/01/14 05:50:47;;;;;;;8.82;5.90;;;;;;;0.49;84.35;95323.22;5002163;28;20058;-56
2021/01/14 05:53:15;;;;;;;8.60;5.55;;;;;;;0.38;84.35;95335.88;5011548;28;20050;-57
2021/01/14 05:55:44;;;;;;;7.32;5.45;;;;;;;0.34;83.22;95327.66;4985902;28;20054;-55
2021/01/14 05:58:20;;;;;;;8.10;4.65;;;;;;;0.40;82.62;95328.41;5006218;28;20174;-50
2021/01/14 06:00:48;;;;;;;8.75;5.35;;;;;;;0.55;82.50;95327.44;5012853;28;20168;-55
2021/01/14 06:03:26;;;;;;;8.85;5.80;;;;;;;0.47;82.98;95336.84;5012917;28;20082;-54
2021/01/14 06:05:54;;;;;;;7.05;5.30;;;;;;;0.41;82.35;95338.75;4997678;28;20086;-54
2021/01/14 06:08:23;;;;;;;8.60;5.20;;;;;;;0.44;82.46;95342.72;4973956;28;20055;-52
2021/01/14 06:10:50;;;;;;;9.32;5.57;;;;;;;0.44;82.50;95334.75;4972685;28;20113;-55
2021/01/14 06:13:16;;;;;;;7.65;5.00;;;;;;;0.52;81.70;95333.31;4975924;28;20082;-63
2021/01/14 06:15:43;;;;;;;9.00;5.05;;;;;;;0.48;81.14;95365.03;5020541;28;20054;-53
2021/01/14 06:18:12;;;;;;;8.77;4.72;;;;;;;0.45;80.56;95361.06;5011801;28;20045;-54
2021/01/14 06:20:52;;;;;;;8.50;5.70;;;;;;;0.44;80.37;95374.66;5012280;28;20068;-51
2021/01/14 06:23:22;;;;;;;10.40;5.50;;;;;;;0.51;80.50;95384.97;5016030;28;20470;-54
2021/01/14 06:25:53;;;;;;;8.40;4.78;;;;;;;0.52;79.18;95392.69;5013450;28;20057;-56
2021/01/14 06:28:22;;;;;;;11.82;5.68;;;;;;;0.58;79.33;95404.84;4997915;28;20654;-54
2021/01/14 06:31:02;;;;;;;8.07;5.60;;;;;;;0.61;79.30;95406.94;4993267;28;20089;-53
2021/01/14 06:33:30;;;;;;;7.47;4.50;;;;;;;0.53;77.47;95399.59;5015299;28;20100;-54
2021/01/14 06:36:05;;;;;;;7.82;5.07;;;;;;;0.47;78.10;95422.00;4991180;28;20061;-52
2021/01/14 06:38:40;;;;;;;8.07;5.10;;;;;;;0.63;77.60;95404.03;4992299;28;20086;-52
2021/01/14 06:41:14;;;;;;;9.05;5.53;;;;;;;0.58;77.96;95412.84;4992294;28;20097;-53
2021/01/14 06:43:42;;;;;;;8.35;5.75;;;;;;;0.68;78.05;95420.75;4993145;28;20058;-57
2021/01/14 06:46:18;;;;;;;8.95;5.00;;;;;;;0.68;77.20;95412.75;4991868;28;20085;-53
2021/01/14 06:49:03;;;;;;;13.13;6.38;;;;;;;0.51;78.17;95417.69;4993838;28;20519;-54
2021/01/14 06:51:56;;;;;;;8.45;5.72;;;;;;;0.62;77.95;95424.53;4987130;28;20054;-50
2021/01/14 06:54:25;;;;;;;12.05;5.70;;;;;;;0.67;77.91;95437.00;4981755;28;20109;-52
2021/01/14 06:57:14;;;;;;;9.65;5.85;;;;;;;0.54;78.35;95433.13;4974359;28;20050;-53
2021/01/14 06:59:42;;;;;;;12.13;6.05;;;;;;;0.43;77.73;95418.31;4989044;28;20054;-55
2021/01/14 07:02:29;;;;;;;10.48;5.85;;;;;;;0.57;77.90;95442.41;4973395;28;20082;-53
2021/01/14 07:05:04;;;;;;;10.77;5.95;;;;;;;0.59;77.86;95451.72;4985222;28;20467;-54
2021/01/14 07:07:48;;;;;;;12.85;6.40;;;;;;;0.35;77.44;95421.56;4988029;28;20050;-52
2021/01/14 07:10:16;;;;;;;12.05;6.13;;;;;;;0.57;77.59;95437.88;4991241;28;20145;-50
2021/01/14 07:12:45;;;;;;;11.65;6.95;;;;;;;0.80;77.59;95456.84;4991641;28;20527;-51
2021/01/14 07:15:14;;;;;;;11.02;6.05;;;;;;;0.78;76.95;95445.66;4989261;28;20562;-54
2021/01/14 07:17:42;;;;;;;10.63;6.38;;;;;;;0.51;78.19;95449.66;4989170;28;20480;-59
2021/01/14 07:20:16;;;;;;;13.23;6.32;;;;;;;0.62;77.97;95456.47;4991761;28;20116;-56
2021/01/14 07:22:59;;;;;;;10.25;6.03;;;;;;;0.75;76.65;95475.50;4994363;28;20046;-53
2021/01/14 07:25:26;;;;;;;11.10;6.43;;;;;;;0.80;76.23;95476.28;4991762;28;20463;-52
2021/01/14 07:27:53;;;;;;;12.05;5.78;;;;;;;0.60;76.93;95501.22;4990761;28;20523;-50
2021/01/14 07:30:20;;;;;;;12.73;6.38;;;;;;;0.54;76.89;95493.56;4991361;28;20149;-52
2021/01/14 07:32:50;;;;;;;8.90;5.18;;;;;;;0.61;74.98;95497.47;4976531;28;20054;-54
2021/01/14 07:35:36;;;;;;;8.65;5.53;;;;;;;0.65;75.10;95493.19;4991270;28;20109;-52
2021/01/14 07:38:18;;;;;;;7.72;5.32;;;;;;;0.61;75.90;95496.69;4990022;28;20085;-53
2021/01/14 07:40:58;;;;;;;8.48;5.63;;;;;;;0.60;75.37;95498.56;4979841;28;20065;-49
2021/01/14 07:43:34;;;;;;;8.85;5.00;;;;;;;0.59;74.40;95512.16;4983054;28;20061;-54
2021/01/14 07:46:17;;;;;;;8.63;5.30;;;;;;;0.67;73.66;95512.31;4980215;28;20306;-54
2021/01/14 07:48:44;;;;;;;7.63;4.90;;;;;;;0.73;73.32;95512.28;4984761;28;20110;-50
2021/01/14 07:51:10;;;;;;;11.07;5.60;;;;;;;0.63;73.88;95521.94;4984309;28;20105;-52
2021/01/14 07:53:37;;;;;;;11.98;5.78;;;;;;;0.67;73.55;95520.31;4986917;28;20054;-53
2021/01/14 07:56:23;;;;;;;12.50;5.95;;;;;;;0.75;74.13;95516.28;4978256;28;20050;-53
2021/01/14 07:58:54;;;;;;;12.27;5.30;;;;;;;0.69;73.85;95522.72;4987648;28;20141;-54
2021/01/14 08:01:20;;;;;;;8.13;5.32;;;;;;;0.66;74.18;95524.06;4979336;28;20078;-51
2021/01/14 08:03:47;;;;;;;10.38;6.00;;;;;;;0.64;73.71;95506.78;4985190;28;20092;-56
2021/01/14 08:06:27;;;;;;;10.20;5.55;;;;;;;0.64;74.40;95541.38;4979632;28;20050;-48
2021/01/14 08:09:06;;;;;;;8.82;5.35;;;;;;;0.46;73.68;95537.53;4978220;28;20051;-46
2021/01/14 08:11:45;;;;;;;9.63;5.28;;;;;;;0.44;73.13;95545.00;4982970;28;20509;-45
2021/01/14 08:14:34;;;;;;;10.00;5.10;;;;;;;0.38;73.26;95546.88;4963783;28;20546;-47
2021/01/14 08:17:01;;;;;;;10.90;5.07;;;;;;;0.36;73.91;95542.94;4982458;28;20046;-46
2021/01/14 08:19:36;;;;;;;12.55;5.95;;;;;;;0.38;74.87;95548.75;4981504;28;20050;-47
2021/01/14 08:22:06;;;;;;;9.60;5.90;;;;;;;0.63;74.44;95559.22;4981251;28;20237;-48
2021/01/14 08:24:50;;;;;;;10.55;6.20;;;;;;;0.77;74.01;95564.72;4980940;28;20120;-48
2021/01/14 08:27:27;;;;;;;12.98;6.18;;;;;;;0.92;74.07;95569.13;4980644;28;20113;-47
2021/01/14 08:30:07;;;;;;;9.45;5.82;;;;;;;0.89;74.44;95572.34;4991678;28;20415;-47
2021/01/14 08:32:34;;;;;;;9.10;5.55;;;;;;;0.85;74.88;95566.00;4992519;28;20576;-49
2021/01/14 08:35:31;;;;;;;11.40;5.78;;;;;;;0.69;75.07;95578.63;4990070;28;20512;-48
2021/01/14 08:38:01;;;;;;;9.57;5.93;;;;;;;0.79;74.09;95573.22;4986006;28;20046;-49
2021/01/14 08:40:29;;;;;;;9.80;5.95;;;;;;;0.82;74.19;95572.66;4985377;28;20055;-47
2021/01/14 08:43:18;;;;;;;8.00;5.53;;;;;;;0.69;74.19;95578.63;4985037;28;20073;-45
2021/01/14 08:45:53;;;;;;;8.82;4.80;;;;;;;0.64;73.60;95589.31;4988469;28;20050;-45
2021/01/14 08:48:24;;;;;;;11.40;5.60;;;;;;;0.65;73.84;95590.88;4987831;28;20047;-50
2021/01/14 08:51:01;;;;;;;10.38;5.95;;;;;;;0.46;73.43;95612.06;4989624;28;20046;-45
2021/01/14 08:53:37;;;;;;;9.25;5.32;;;;;;;0.49;72.67;95619.50;4988026;28;20504;-46
2021/01/14 08:56:05;;;;;;;10.93;5.45;;;;;;;0.49;72.54;95619.50;4989019;28;20046;-49
2021/01/14 08:58:45;;;;;;;9.18;5.43;;;;;;;0.61;72.66;95633.25;4988164;28;20145;-47
2021/01/14 09:01:22;;;;;;;8.38;5.10;;;;;;;0.84;71.82;95636.28;4985637;28;20050;-47
2021/01/14 09:03:52;;;;;;;6.95;4.68;;;;;;;0.99;70.37;95627.41;4983179;28;20057;-48
2021/01/14 09:06:33;;;;;;;11.00;5.50;;;;;;;0.98;70.00;95637.28;4981955;28;20101;-45
2021/01/14 09:09:02;;;;;;;10.48;5.65;;;;;;;0.49;71.92;95643.44;4982677;28;20082;-46
2021/01/14 09:11:30;;;;;;;9.90;5.00;;;;;;;0.70;71.82;95636.91;4983176;28;20042;-49
2021/01/14 09:14:11;;;;;;;11.45;5.55;;;;;;;0.78;71.40;95632.88;4992297;28;20376;-49
2021/01/14 09:16:39;;;;;;;8.75;4.93;;;;;;;0.92;70.49;95639.16;4983575;28;20499;-47
2021/01/14 09:19:27;;;;;;;10.05;5.10;;;;;;;0.73;70.90;95656.09;4984958;28;20427;-45
2021/01/14 09:21:54;;;;;;;7.97;5.38;;;;;;;0.69;70.22;95664.63;4981564;28;20057;-48
2021/01/14 09:24:20;;;;;;;7.90;4.75;;;;;;;0.81;70.02;95660.81;4983875;28;20468;-47
2021/01/14 09:26:48;;;;;;;11.05;5.78;;;;;;;0.91;70.01;95668.72;4982543;28;20547;-47
2021/01/14 09:29:15;;;;;;;11.68;5.95;;;;;;;0.83;69.46;95670.13;4983976;28;20116;-49
2021/01/14 09:31:43;;;;;;;10.82;5.78;;;;;;;0.89;69.80;95658.38;4984199;28;20058;-47
2021/01/14 09:34:10;;;;;;;14.23;6.07;;;;;;;0.88;70.51;95658.66;4984268;28;20508;-45
2021/01/14 09:36:36;;;;;;;8.30;5.35;;;;;;;0.77;70.98;95665.91;4984772;28;20070;-46
2021/01/14 09:39:07;;;;;;;10.85;6.13;;;;;;;0.45;71.73;95664.47;4984936;28;20042;-48
2021/01/14 09:41:35;;;;;;;11.52;5.80;;;;;;;0.76;71.49;95671.50;4985893;28;20509;-51
2021/01/14 09:44:07;;;;;;;11.73;5.45;;;;;;;0.77;70.87;95675.75;4984827;28;20926;-48
2021/01/14 09:46:38;;;;;;;10.70;5.25;;;;;;;0.50;72.26;95676.97;4981596;28;20051;-46
2021/01/14 09:49:10;;;;;;;9.73;5.93;;;;;;;0.82;72.25;95678.41;4987440;28;20516;-47
2021/01/14 09:51:43;;;;;;;8.32;5.18;;;;;;;0.68;70.80;95680.84;4988893;28;20050;-47
2021/01/14 09:54:14;;;;;;;10.05;6.10;;;;;;;0.33;71.43;95660.56;4989185;28;20042;-50
2021/01/14 09:56:47;;;;;;;10.68;5.57;;;;;;;0.35;71.92;95695.66;4984181;28;20097;-46
2021/01/14 09:59:19;;;;;;;11.10;6.10;;;;;;;0.36;72.90;95683.97;4989727;28;20058;-45
2021/01/14 10:02:04;;;;;;;8.60;5.78;;;;;;;0.26;73.80;95681.34;4988096;28;20061;-46
2021/01/14 10:04:34;;;;;;;11.93;5.57;;;;;;;0.41;71.65;95683.94;4990598;28;20083;-46
2021/01/14 10:07:06;;;;;;;9.88;5.75;;;;;;;0.70;71.94;95687.50;4984886;28;20050;-46
2021/01/14 10:09:34;;;;;;;11.63;6.70;;;;;;;0.65;71.47;95684.06;4985784;28;20109;-45
2021/01/14 10:12:05;;;;;;;9.07;5.93;;;;;;;0.60;71.29;95686.78;4983324;28;20718;-46
2021/01/14 10:14:31;;;;;;;10.05;5.88;;;;;;;0.70;72.67;95695.50;4983619;28;20142;-47
2021/01/14 10:17:34;;;;;;;9.55;6.10;;;;;;;0.55;73.28;95698.22;4987207;28;20120;-47
2021/01/14 10:20:02;;;;;;;9.02;6.30;;;;;;;0.56;73.37;95696.38;4985387;28;20049;-47
2021/01/14 10:22:29;;;;;;;9.98;6.07;;;;;;;0.52;73.69;95690.81;4986665;28;20054;-49
2021/01/14 10:25:08;;;;;;;10.30;6.32;;;;;;;0.35;73.15;95680.50;4983799;28;20104;-46
2021/01/14 10:27:35;;;;;;;10.23;6.55;;;;;;;0.61;73.08;95685.69;4982802;28;20092;-45
2021/01/14 10:30:19;;;;;;;11.10;5.20;;;;;;;0.43;70.17;95685.25;4983901;28;20054;-47
2021/01/14 10:32:47;;;;;;;8.93;5.25;;;;;;;0.18;69.92;95696.81;4999538;28;20404;-46
2021/01/14 10:35:27;;;;;;;7.10;4.97;;;;;;;0.45;68.93;95682.31;4985076;28;20050;-46
2021/01/14 10:38:11;;;;;;;10.18;5.25;;;;;;;0.44;69.46;95696.69;4982519;28;20587;-47
2021/01/14 10:40:44;;;;;;;;;;;;;;;0.20;67.55;95709.84;4984408;28;20054;-46
2021/01/14 10:43:33;;;;;;;11.73;5.18;;;;;;;0.26;69.37;95699.97;4983460;28;20445;-45
2021/01/14 10:46:01;;;;;;;8.85;4.47;;;;;;;0.36;68.23;95699.94;4985219;28;20089;-46
2021/01/14 10:48:42;;;;;;;8.45;4.60;;;;;;;0.40;68.02;95719.63;4983684;28;20073;-48
2021/01/14 10:51:09;;;;;;;10.32;5.45;;;;;;;0.31;68.95;95716.72;4980764;28;20532;-47
2021/01/14 10:53:37;;;;;;;10.35;4.95;;;;;;;0.54;68.13;95709.16;4975006;28;20050;-49
2021/01/14 10:56:09;;;;;;;11.85;5.25;;;;;;;0.37;68.49;95714.84;4963728;28;20516;-46
2021/01/14 10:58:37;;;;;;;11.85;5.00;;;;;;;0.11;69.28;95717.56;4961077;28;20105;-50
2021/01/14 11:01:19;;;;;;;8.30;5.18;;;;;;;0.25;69.70;95723.13;4970110;28;20105;-46
2021/01/14 11:03:46;;;;;;;11.50;5.20;;;;;;;0.21;69.85;95724.72;4966018;28;20051;-45
2021/01/14 11:06:30;;;;;;;10.20;5.72;;;;;;;0.34;70.03;95715.38;4972217;28;20086;-50
2021/01/14 11:09:02;;;;;;;8.88;5.22;;;;;;;0.11;69.96;95727.44;4963978;28;20129;-48
2021/01/14 11:11:35;;;;;;;8.02;5.05;;;;;;;0.28;69.72;95732.44;4964398;28;20067;-47
2021/01/14 11:14:02;;;;;;;10.40;4.75;;;;;;;0.05;68.80;95728.50;4964998;28;20051;-47
2021/01/14 11:16:29;;;;;;;9.25;5.55;;;;;;;0.29;69.32;95736.66;4971408;28;20050;-45
2021/01/14 11:18:57;;;;;;;8.27;4.80;;;;;;;0.40;68.40;95740.91;4966188;28;20043;-46
2021/01/14 11:21:32;;;;;;;13.55;5.63;;;;;;;0.44;67.22;95734.75;4970524;28;20051;-47
2021/01/14 11:23:59;;;;;;;12.35;4.82;;;;;;;0.28;67.70;95743.88;4964861;28;20059;-46
2021/01/14 11:26:26;;;;;;;9.95;4.70;;;;;;;0.51;66.84;95749.63;4966801;28;20050;-54
2021/01/14 11:29:11;;;;;;;7.35;4.25;;;;;;;0.81;66.62;95751.34;4969831;28;20097;-46
2021/01/14 11:31:37;;;;;;;8.63;5.05;;;;;;;0.47;66.60;95744.06;4962643;28;20047;-48
2021/01/14 11:34:04;;;;;;;5.80;3.40;;;;;;;0.61;67.17;95750.38;4964301;28;20054;-47
2021/01/14 11:36:30;;;;;;;11.57;4.40;;;;;;;0.63;67.79;95755.44;4963502;28;20158;-50
2021/01/14 11:38:57;;;;;;;9.88;3.60;;;;;;;0.54;65.61;95754.41;4963427;28;20097;-47
2021/01/14 11:41:25;;;;;;;6.65;2.88;;;;;;;-0.05;66.04;95755.91;4975743;28;20097;-46
2021/01/14 11:43:51;;;;;;;6.22;3.75;;;;;;;-0.11;67.84;95764.97;4969403;28;20824;-45
2021/01/14 11:46:24;;;;;;;7.47;3.30;;;;;;;0.14;67.59;95772.91;4965744;28;20058;-46
2021/01/14 11:48:52;;;;;;;7.05;3.38;;;;;;;0.04;67.95;95764.97;4965343;28;20050;-46
2021/01/14 11:51:18;;;;;;;6.93;2.20;;;;;;;-0.20;69.52;95779.88;4960879;28;20126;-48
2021/01/14 11:53:44;;;;;;;4.85;2.40;;;;;;;0.08;69.64;95768.66;4970182;28;20050;-49
2021/01/14 11:56:14;;;;;;;3.20;1.98;;;;;;;0.07;70.37;95774.25;4966379;28;20489;-46